Time;durP1;ratioP1;P1;durP2;ratioP2;P2;SDS_P1;SDS_P2;PMS_P1;PMS_P2;Temp;Humidity;BMP_temperature;BMP_pressure;BME280_temperature;BME280_humidity;BME280_pressure;Samples;Min_cycle;Max_cycle;Signal;HPM_P1;HPM_P2
2021/12/19 00:01:10;;;;;;;36.85;21.52;;;2.10;99.90;;;;;;4972667;28;20539;-76
2021/12/19 00:03:51;;;;;;;50.33;23.90;;;2.20;99.90;;;;;;4972858;28;20022;-76
2021/12/19 00:09:02;;;;;;;43.38;21.15;;;2.00;99.90;;;;;;4972855;28;20069;-74
2021/12/19 00:11:29;;;;;;;29.42;18.48;;;2.10;99.90;;;;;;4972830;28;20455;-74
2021/12/19 00:13:56;;;;;;;34.35;20.27;;;2.10;99.90;;;;;;4975945;28;20135;-74
2021/12/19 00:16:23;;;;;;;34.30;19.63;;;2.20;99.90;;;;;;4980780;28;20022;-74
2021/12/19 00:18:50;;;;;;;29.13;19.02;;;2.10;99.90;;;;;;4979690;28;20022;-74
2021/12/19 00:21:17;;;;;;;53.70;25.58;;;2.20;99.90;;;;;;4975164;28;20484;-75
2021/12/19 00:23:44;;;;;;;34.80;21.00;;;2.20;99.90;;;;;;4975159;28;20042;-75
2021/12/19 00:26:11;;;;;;;37.35;20.73;;;2.20;99.90;;;;;;4986405;28;20030;-74
2021/12/19 00:28:36;;;;;;;27.83;17.40;;;2.20;99.90;;;;;;4988480;28;20093;-75
2021/12/19 00:31:03;;;;;;;51.55;23.58;;;2.30;99.90;;;;;;4980649;28;20452;-74
2021/12/19 00:33:28;;;;;;;57.38;25.75;;;2.20;99.90;;;;;;4995938;28;20088;-74
2021/12/19 00:35:54;;;;;;;31.80;19.23;;;2.20;99.90;;;;;;4991727;28;20039;-74
2021/12/19 00:38:20;;;;;;;30.77;18.67;;;2.10;99.90;;;;;;4977223;28;20030;-75
2021/12/19 00:40:45;;;;;;;76.90;27.52;;;2.10;99.90;;;;;;4976105;28;20046;-74
2021/12/19 00:43:22;;;;;;;39.90;20.70;;;2.10;99.90;;;;;;4976283;28;20432;-74
2021/12/19 00:45:50;;;;;;;37.28;18.90;;;2.10;99.90;;;;;;4977666;28;20015;-74
2021/12/19 00:48:16;;;;;;;44.95;21.35;;;2.10;99.90;;;;;;4981991;28;20049;-75
2021/12/19 00:50:42;;;;;;;39.40;20.42;;;2.20;99.90;;;;;;4974700;28;20109;-74
2021/12/19 00:53:08;;;;;;;37.70;18.73;;;2.20;99.90;;;;;;4976026;28;20023;-74
2021/12/19 00:55:35;;;;;;;42.58;22.50;;;2.30;99.90;;;;;;4977697;28;20033;-75
2021/12/19 00:58:01;;;;;;;36.10;19.88;;;2.40;99.90;;;;;;4968225;28;20027;-74
2021/12/19 01:00:30;;;;;;;44.72;21.58;;;2.20;99.90;;;;;;4979032;28;20196;-74
2021/12/19 01:02:59;;;;;;;39.08;21.00;;;2.20;99.90;;;;;;4975967;28;20023;-74
2021/12/19 01:05:29;;;;;;;66.85;26.58;;;2.20;99.90;;;;;;4977101;28;20022;-74
2021/12/19 01:07:55;;;;;;;39.00;20.65;;;2.10;99.90;;;;;;4984500;28;20081;-74
2021/12/19 01:10:21;;;;;;;49.38;22.48;;;2.20;99.90;;;;;;4975573;28;20424;-75
2021/12/19 01:12:47;;;;;;;43.63;23.02;;;2.20;99.90;;;;;;4975099;28;20027;-75
2021/12/19 01:15:15;;;;;;;40.35;21.10;;;2.40;99.90;;;;;;4976938;28;20092;-76
2021/12/19 01:17:41;;;;;;;60.10;25.50;;;2.20;99.90;;;;;;4984372;28;20078;-76
2021/12/19 01:20:12;;;;;;;36.08;20.80;;;2.30;99.90;;;;;;4984367;28;20504;-76
2021/12/19 01:22:38;;;;;;;39.63;21.70;;;2.30;99.90;;;;;;4976748;28;20034;-76
2021/12/19 01:25:04;;;;;;;32.95;19.65;;;2.30;99.90;;;;;;4979769;28;20046;-76
2021/12/19 01:27:30;;;;;;;48.15;22.40;;;2.30;99.90;;;;;;4990985;28;20037;-76
2021/12/19 01:29:55;;;;;;;37.20;19.55;;;2.30;99.90;;;;;;4975691;28;20023;-76
2021/12/19 01:32:21;;;;;;;44.83;21.42;;;2.30;99.90;;;;;;4979400;28;20023;-76
2021/12/19 01:34:46;;;;;;;40.92;22.08;;;2.30;99.90;;;;;;4975170;28;20029;-76
2021/12/19 01:37:13;;;;;;;45.72;23.95;;;2.30;99.90;;;;;;4980971;28;20021;-76
2021/12/19 01:39:38;;;;;;;51.42;25.77;;;2.40;99.90;;;;;;4975805;28;20026;-76
2021/12/19 01:42:09;;;;;;;52.45;25.75;;;2.30;99.90;;;;;;4981798;28;20022;-76
2021/12/19 01:44:35;;;;;;;60.67;26.70;;;2.40;99.90;;;;;;4976611;28;20498;-75
2021/12/19 01:47:01;;;;;;;60.72;26.85;;;2.40;99.90;;;;;;4983071;28;20034;-75
2021/12/19 01:49:27;;;;;;;69.57;30.50;;;2.30;99.90;;;;;;4978062;28;20022;-74
2021/12/19 01:51:52;;;;;;;74.57;28.90;;;2.40;99.90;;;;;;4974864;28;20382;-75
2021/12/19 01:54:18;;;;;;;66.72;27.65;;;2.40;99.90;;;;;;4977736;28;20023;-75
2021/12/19 01:56:43;;;;;;;108.45;33.40;;;2.40;99.90;;;;;;4973439;28;20113;-75
2021/12/19 01:59:10;;;;;;;52.08;26.33;;;2.40;99.90;;;;;;4980000;28;20015;-74
2021/12/19 02:01:53;;;;;;;98.85;34.30;;;2.40;99.90;;;;;;4974790;28;20077;-74
2021/12/19 02:04:21;;;;;;;83.15;32.63;;;2.40;99.90;;;;;;4971315;28;20058;-75
2021/12/19 02:06:47;;;;;;;91.10;33.75;;;2.40;99.90;;;;;;4985859;28;20439;-74
2021/12/19 02:09:12;;;;;;;83.72;31.98;;;2.60;99.90;;;;;;4981145;28;20106;-76
2021/12/19 02:11:41;;;;;;;87.60;32.78;;;2.40;99.90;;;;;;4978225;28;20037;-75
2021/12/19 02:14:08;;;;;;;98.60;34.45;;;2.60;99.90;;;;;;4982454;28;20034;-75
2021/12/19 02:16:36;;;;;;;93.10;32.70;;;2.40;99.90;;;;;;4978293;28;20031;-75
2021/12/19 02:19:04;;;;;;;93.20;34.30;;;2.40;99.90;;;;;;4965511;28;20195;-75
2021/12/19 02:21:29;;;;;;;260.63;52.97;;;2.40;99.90;;;;;;4972949;28;20045;-74
2021/12/19 02:24:00;;;;;;;331.48;60.80;;;2.40;99.90;;;;;;4973945;28;20469;-75
2021/12/19 02:26:26;;;;;;;312.88;55.15;;;2.30;99.90;;;;;;4973133;28;20042;-75
2021/12/19 02:28:51;;;;;;;220.95;48.47;;;2.50;99.90;;;;;;4976623;28;20027;-75
2021/12/19 02:31:17;;;;;;;153.00;44.30;;;2.40;99.90;;;;;;4990093;28;20029;-75
2021/12/19 02:33:57;;;;;;;133.15;42.63;;;2.40;99.90;;;;;;4984451;28;20030;-77
2021/12/19 02:36:37;;;;;;;143.20;43.92;;;2.40;99.90;;;;;;4982782;28;20034;-76
2021/12/19 02:49:44;;;;;;;70.32;34.60;;;2.60;99.90;;;;;;4977521;28;20028;-75
2021/12/19 02:52:15;;;;;;;93.25;38.08;;;2.50;99.90;;;;;;4976259;28;20026;-75
2021/12/19 02:54:41;;;;;;;335.00;64.35;;;2.50;99.90;;;;;;4983996;28;20019;-76
2021/12/19 02:57:07;;;;;;;321.50;56.65;;;2.60;99.90;;;;;;4974806;28;20023;-75
2021/12/19 02:59:33;;;;;;;301.92;65.85;;;2.50;99.90;;;;;;4976027;28;20366;-75
2021/12/19 03:01:59;;;;;;;130.40;42.50;;;2.40;99.90;;;;;;4983905;28;20028;-75
2021/12/19 03:04:25;;;;;;;163.70;51.75;;;2.40;99.90;;;;;;4973389;28;20444;-75
2021/12/19 03:06:50;;;;;;;181.95;52.17;;;2.50;99.90;;;;;;4973422;28;20031;-75
2021/12/19 03:09:35;;;;;;;79.25;36.03;;;2.40;99.90;;;;;;4972300;28;20026;-76
2021/12/19 03:12:08;;;;;;;155.15;47.53;;;2.40;99.90;;;;;;4982553;28;20026;-77
2021/12/19 03:20:03;;;;;;;87.53;37.85;;;2.40;99.90;;;;;;4983103;28;20397;-75
2021/12/19 03:22:29;;;;;;;120.20;43.58;;;2.40;99.90;;;;;;4982920;28;20568;-76
2021/12/19 03:24:54;;;;;;;129.57;45.72;;;2.50;99.90;;;;;;4978492;28;20113;-75
2021/12/19 03:27:20;;;;;;;135.05;46.42;;;2.40;99.90;;;;;;4991662;28;20022;-76
2021/12/19 03:29:45;;;;;;;119.25;45.17;;;2.40;99.90;;;;;;4978369;28;20026;-75
2021/12/19 03:32:11;;;;;;;113.85;43.35;;;2.50;99.90;;;;;;4982108;28;20082;-75
2021/12/19 03:34:36;;;;;;;113.63;42.17;;;2.40;99.90;;;;;;4986263;28;20027;-74
2021/12/19 03:37:03;;;;;;;117.13;42.90;;;2.50;99.90;;;;;;4982220;28;20054;-74
2021/12/19 03:39:37;;;;;;;116.35;44.08;;;2.50;99.90;;;;;;4975634;28;20425;-74
2021/12/19 03:42:04;;;;;;;110.55;44.35;;;2.50;99.90;;;;;;4983238;28;20117;-74
2021/12/19 03:44:29;;;;;;;132.68;47.40;;;2.50;99.90;;;;;;4978041;28;20027;-74
2021/12/19 03:46:55;;;;;;;125.32;46.45;;;2.60;99.90;;;;;;4981602;28;20066;-75
2021/12/19 03:49:20;;;;;;;109.68;44.67;;;2.40;99.90;;;;;;4984900;28;20408;-75
2021/12/19 03:51:47;;;;;;;95.95;41.83;;;2.50;99.90;;;;;;4983070;28;20495;-75
2021/12/19 03:54:12;;;;;;;128.75;47.83;;;2.50;99.90;;;;;;4983883;28;20031;-75
2021/12/19 03:56:38;;;;;;;140.00;49.10;;;2.60;99.90;;;;;;4982030;28;20034;-75
2021/12/19 03:59:03;;;;;;;113.45;45.85;;;2.50;99.90;;;;;;4984875;28;20033;-75
2021/12/19 04:01:29;;;;;;;130.05;47.60;;;2.50;99.90;;;;;;4982804;28;20022;-76
2021/12/19 04:03:55;;;;;;;134.75;47.33;;;2.50;99.90;;;;;;4975880;28;20031;-76
2021/12/19 04:06:21;;;;;;;123.40;47.20;;;2.40;99.90;;;;;;4971545;28;20027;-75
2021/12/19 04:08:47;;;;;;;120.93;46.42;;;2.50;99.90;;;;;;4972974;28;20035;-76
2021/12/19 04:11:13;;;;;;;121.97;47.00;;;2.40;99.90;;;;;;4982160;28;20488;-76
2021/12/19 04:13:38;;;;;;;128.52;48.30;;;2.50;99.90;;;;;;4988118;28;20093;-75
2021/12/19 04:16:04;;;;;;;99.45;43.28;;;2.50;99.90;;;;;;4990749;28;20525;-75
2021/12/19 04:18:30;;;;;;;95.47;42.83;;;2.40;99.90;;;;;;4977871;28;20022;-74
2021/12/19 04:20:55;;;;;;;96.80;43.03;;;2.50;99.90;;;;;;4981371;28;20813;-74
2021/12/19 04:23:21;;;;;;;94.63;42.20;;;2.40;99.90;;;;;;4984389;28;20395;-74
2021/12/19 04:25:46;;;;;;;84.05;40.45;;;2.50;99.90;;;;;;4986349;28;20481;-74
2021/12/19 04:28:13;;;;;;;94.90;44.22;;;2.60;99.90;;;;;;4980780;28;20473;-74
2021/12/19 04:30:39;;;;;;;105.28;44.05;;;2.40;99.90;;;;;;4981843;28;20041;-75
2021/12/19 04:33:09;;;;;;;105.75;46.05;;;2.50;99.90;;;;;;4987833;28;20031;-75
2021/12/19 04:35:39;;;;;;;100.70;44.63;;;2.50;99.90;;;;;;4983675;28;20022;-74
2021/12/19 04:54:22;;;;;;;94.25;42.88;;;2.60;99.90;;;;;;4977565;28;20054;-74
2021/12/19 05:15:25;;;;;;;75.82;38.83;;;2.70;99.90;;;;;;4989249;28;20042;-75
2021/12/19 05:17:52;;;;;;;68.13;35.92;;;2.80;99.90;;;;;;4990911;28;20077;-73
2021/12/19 05:20:22;;;;;;;74.78;36.97;;;2.70;99.90;;;;;;4993802;28;20018;-73
2021/12/19 05:22:49;;;;;;;73.70;37.45;;;2.70;99.90;;;;;;4982907;28;20097;-73
2021/12/19 05:25:19;;;;;;;61.22;34.90;;;2.70;99.90;;;;;;4987430;28;20022;-73
2021/12/19 05:27:48;;;;;;;79.10;38.28;;;2.70;99.90;;;;;;4994347;28;20034;-74
2021/12/19 05:30:14;;;;;;;80.13;38.72;;;2.70;99.90;;;;;;4982687;28;20030;-73
2021/12/19 05:32:45;;;;;;;81.18;38.55;;;2.70;99.90;;;;;;4993097;28;20040;-74
2021/12/19 05:35:14;;;;;;;79.25;38.95;;;2.70;99.90;;;;;;4986282;28;20022;-74
2021/12/19 05:45:53;;;;;;;75.20;37.13;;;2.80;99.90;;;;;;4981244;28;20045;-74
2021/12/19 05:48:19;;;;;;;69.15;36.10;;;2.80;99.90;;;;;;4983805;28;20038;-74
2021/12/19 05:50:44;;;;;;;90.43;40.88;;;2.90;99.90;;;;;;4987908;28;20030;-74
2021/12/19 05:53:11;;;;;;;77.55;37.33;;;2.80;99.90;;;;;;4983204;28;20022;-76
2021/12/19 05:55:36;;;;;;;65.80;33.72;;;2.80;99.90;;;;;;4979929;28;20026;-75
2021/12/19 05:58:02;;;;;;;70.80;36.42;;;2.80;99.90;;;;;;4993231;28;20023;-74
2021/12/19 06:00:29;;;;;;;68.13;35.20;;;2.80;99.90;;;;;;4979840;28;20031;-75
2021/12/19 06:02:55;;;;;;;72.40;36.47;;;2.80;99.90;;;;;;4994255;28;20030;-75
2021/12/19 06:05:20;;;;;;;71.65;36.88;;;2.90;99.90;;;;;;4979729;28;20030;-75
2021/12/19 06:07:46;;;;;;;72.50;35.70;;;2.90;99.90;;;;;;4985057;28;20106;-75
2021/12/19 06:10:12;;;;;;;56.28;32.72;;;2.90;99.90;;;;;;4974972;28;20053;-75
2021/12/19 06:12:39;;;;;;;66.70;36.03;;;2.90;99.90;;;;;;4985155;28;20034;-74
2021/12/19 06:15:09;;;;;;;76.97;36.92;;;2.90;99.90;;;;;;4987693;28;20054;-76
2021/12/19 06:17:35;;;;;;;72.65;36.10;;;2.90;99.90;;;;;;4983181;28;20076;-75
2021/12/19 06:20:01;;;;;;;76.72;37.22;;;2.90;99.90;;;;;;4980857;28;20022;-75
2021/12/19 06:22:26;;;;;;;77.47;37.17;;;2.90;99.90;;;;;;4983987;28;20033;-75
2021/12/19 06:24:52;;;;;;;67.30;35.55;;;3.00;99.90;;;;;;4986121;28;20023;-76
2021/12/19 06:27:17;;;;;;;69.70;36.05;;;2.80;99.90;;;;;;4982479;28;20030;-75
2021/12/19 06:29:43;;;;;;;65.07;34.08;;;3.00;99.90;;;;;;4992235;28;20026;-76
2021/12/19 06:32:09;;;;;;;61.38;32.90;;;2.90;99.90;;;;;;4984065;28;20481;-77
2021/12/19 06:34:34;;;;;;;69.53;35.97;;;2.90;99.90;;;;;;4987230;28;20027;-77
2021/12/19 06:37:00;;;;;;;64.40;33.95;;;3.00;99.90;;;;;;4984371;28;20035;-77
2021/12/19 06:39:26;;;;;;;54.55;31.33;;;2.90;99.90;;;;;;4979358;28;20045;-77
2021/12/19 06:41:51;;;;;;;64.60;36.22;;;3.00;99.90;;;;;;4983757;28;20509;-77
2021/12/19 06:44:17;;;;;;;119.97;83.90;;;3.00;99.90;;;;;;4987039;28;20047;-78
2021/12/19 06:46:43;;;;;;;99.25;67.60;;;2.80;99.90;;;;;;4989022;28;20026;-76
2021/12/19 06:49:08;;;;;;;117.90;98.30;;;3.00;99.90;;;;;;4991941;28;20473;-77
2021/12/19 06:51:35;;;;;;;64.53;41.88;;;2.90;99.90;;;;;;4983721;28;20500;-77
2021/12/19 06:54:02;;;;;;;77.45;42.90;;;3.00;99.90;;;;;;4988084;28;20062;-77
2021/12/19 06:56:28;;;;;;;79.80;41.85;;;3.00;99.90;;;;;;4983522;28;20516;-77
2021/12/19 06:58:53;;;;;;;52.53;32.40;;;2.90;99.90;;;;;;4979649;28;20105;-77
2021/12/19 07:01:19;;;;;;;64.18;35.30;;;3.00;99.90;;;;;;4990677;28;20081;-77
2021/12/19 07:03:44;;;;;;;66.43;36.80;;;3.00;99.90;;;;;;4993230;28;20491;-77
2021/12/19 07:06:10;;;;;;;110.57;66.45;;;3.00;99.90;;;;;;4983619;28;20119;-77
2021/12/19 07:08:35;;;;;;;168.13;103.93;;;3.00;99.90;;;;;;4987309;28;20425;-77
2021/12/19 07:11:01;;;;;;;154.80;98.80;;;3.00;99.90;;;;;;4982364;28;20065;-77
2021/12/19 07:13:27;;;;;;;128.07;74.53;;;2.90;99.90;;;;;;4985458;28;20026;-77
2021/12/19 07:15:54;;;;;;;215.95;127.78;;;3.00;99.90;;;;;;4982409;28;20084;-76
2021/12/19 07:18:20;;;;;;;52.97;34.88;;;3.00;99.90;;;;;;4980514;28;20037;-76
2021/12/19 07:20:45;;;;;;;37.10;27.00;;;3.00;99.90;;;;;;4982010;28;20023;-76
2021/12/19 07:23:17;;;;;;;30.83;23.67;;;3.00;99.90;;;;;;4988853;28;20022;-77
2021/12/19 07:25:43;;;;;;;46.00;37.85;;;3.20;99.90;;;;;;4981971;28;20030;-76
2021/12/19 07:28:09;;;;;;;31.63;25.23;;;3.00;99.90;;;;;;4979780;28;20030;-76
2021/12/19 07:30:37;;;;;;;58.75;45.03;;;3.00;99.90;;;;;;4982638;28;20027;-76
2021/12/19 07:33:04;;;;;;;31.70;28.40;;;3.00;99.90;;;;;;4986765;28;20085;-77
2021/12/19 07:35:34;;;;;;;38.47;34.60;;;3.10;99.90;;;;;;4973679;28;20031;-76
2021/12/19 07:38:02;;;;;;;27.00;24.13;;;3.30;99.90;;;;;;4985743;28;20015;-76
2021/12/19 07:40:35;;;;;;;26.15;20.88;;;3.10;99.90;;;;;;4971850;28;20031;-75
2021/12/19 07:43:03;;;;;;;24.23;19.48;;;3.10;99.90;;;;;;4977209;28;20025;-76
2021/12/19 07:45:29;;;;;;;24.45;20.15;;;3.10;99.90;;;;;;4985075;28;20018;-77
2021/12/19 07:47:55;;;;;;;23.40;18.10;;;3.10;99.90;;;;;;4978338;28;20034;-77
2021/12/19 07:50:21;;;;;;;21.75;18.88;;;3.10;99.90;;;;;;4977259;28;20424;-76
2021/12/19 07:52:47;;;;;;;21.20;17.20;;;3.10;99.90;;;;;;4978819;28;20023;-77
2021/12/19 07:55:12;;;;;;;23.80;18.95;;;3.10;99.90;;;;;;4989134;28;20080;-76
2021/12/19 07:57:40;;;;;;;25.08;19.80;;;3.10;99.90;;;;;;4985322;28;20389;-76
2021/12/19 08:00:07;;;;;;;24.63;19.17;;;3.10;99.90;;;;;;4984233;28;20025;-76
2021/12/19 08:02:33;;;;;;;18.45;16.55;;;3.10;99.90;;;;;;4980849;28;20068;-76
2021/12/19 08:04:58;;;;;;;17.95;15.98;;;3.10;99.90;;;;;;4977388;28;20255;-77
2021/12/19 08:07:24;;;;;;;19.52;17.42;;;3.20;99.90;;;;;;4985401;28;20045;-76
2021/12/19 08:12:25;;;;;;;19.52;17.52;;;3.30;99.90;;;;;;4971152;28;20117;-76
2021/12/19 08:14:50;;;;;;;19.70;17.60;;;3.20;99.90;;;;;;4976601;28;20154;-76
2021/12/19 08:17:17;;;;;;;20.17;17.40;;;3.30;99.90;;;;;;4981293;28;20153;-75
2021/12/19 08:19:43;;;;;;;20.85;18.58;;;3.20;99.90;;;;;;4987438;28;20022;-76
2021/12/19 08:22:09;;;;;;;21.27;17.95;;;3.20;99.90;;;;;;4981765;28;20023;-76
2021/12/19 08:24:36;;;;;;;21.45;18.88;;;3.20;99.90;;;;;;4981654;28;20031;-76
2021/12/19 08:27:02;;;;;;;22.08;19.40;;;3.20;99.90;;;;;;4980849;28;20537;-76
2021/12/19 08:29:27;;;;;;;21.90;19.15;;;3.20;99.90;;;;;;4978021;28;20106;-76
2021/12/19 08:31:53;;;;;;;21.13;18.90;;;3.40;99.90;;;;;;4975491;28;20113;-75
2021/12/19 08:34:19;;;;;;;20.38;18.17;;;3.30;99.90;;;;;;4976277;28;20515;-75
2021/12/19 08:36:45;;;;;;;22.13;19.17;;;3.30;99.90;;;;;;4976464;28;20106;-75
2021/12/19 08:39:12;;;;;;;23.08;20.00;;;3.40;99.90;;;;;;4977127;28;20034;-75
2021/12/19 08:41:38;;;;;;;23.33;20.35;;;3.30;99.90;;;;;;4986913;28;20061;-75
2021/12/19 08:44:04;;;;;;;26.73;21.75;;;3.30;99.90;;;;;;4978426;28;20023;-75
2021/12/19 08:46:32;;;;;;;24.73;21.38;;;3.30;99.90;;;;;;4987172;28;20035;-74
2021/12/19 08:48:58;;;;;;;23.33;20.77;;;3.30;99.90;;;;;;4976768;28;20027;-75
2021/12/19 08:51:26;;;;;;;23.52;20.02;;;3.20;99.90;;;;;;4971350;28;20030;-75
2021/12/19 08:53:52;;;;;;;24.92;20.80;;;3.30;99.90;;;;;;4980597;28;20484;-75
2021/12/19 08:56:17;;;;;;;25.48;22.75;;;3.30;99.90;;;;;;4994790;28;20076;-76
2021/12/19 08:58:43;;;;;;;27.73;23.17;;;3.40;99.90;;;;;;4981997;28;20034;-76
2021/12/19 09:01:09;;;;;;;27.48;22.67;;;3.30;99.90;;;;;;4995452;28;20062;-76
2021/12/19 09:03:35;;;;;;;28.70;23.73;;;3.20;99.90;;;;;;4982424;28;20076;-76
2021/12/19 09:06:01;;;;;;;28.33;23.30;;;3.30;99.90;;;;;;4975702;28;20054;-76
2021/12/19 09:08:27;;;;;;;28.13;23.27;;;3.50;99.90;;;;;;4986868;28;20030;-76
2021/12/19 09:10:54;;;;;;;26.92;22.83;;;3.40;99.90;;;;;;4980290;28;20050;-75
2021/12/19 09:13:20;;;;;;;29.08;23.65;;;3.40;99.90;;;;;;4986683;28;20031;-76
2021/12/19 09:15:46;;;;;;;26.38;22.63;;;3.40;99.90;;;;;;4985625;28;20047;-75
2021/12/19 09:18:11;;;;;;;29.33;24.48;;;3.40;99.90;;;;;;4990733;28;20027;-75
2021/12/19 09:20:37;;;;;;;30.55;25.92;;;3.40;99.90;;;;;;4975453;28;20030;-75
2021/12/19 09:23:03;;;;;;;26.15;22.85;;;3.40;99.90;;;;;;4981186;28;20026;-74
2021/12/19 09:25:28;;;;;;;24.15;19.95;;;3.40;99.90;;;;;;4978421;28;20027;-74
2021/12/19 09:27:54;;;;;;;23.50;18.63;;;3.50;99.90;;;;;;4975522;28;20085;-75
2021/12/19 09:30:19;;;;;;;22.42;18.75;;;3.40;99.90;;;;;;4987120;28;20384;-76
2021/12/19 09:32:45;;;;;;;22.75;19.48;;;3.40;99.90;;;;;;4976419;28;20053;-76
2021/12/19 09:35:11;;;;;;;22.45;19.92;;;3.50;99.90;;;;;;4994617;28;20070;-76
2021/12/19 09:37:37;;;;;;;21.63;18.45;;;3.40;99.90;;;;;;4978787;28;20046;-75
2021/12/19 09:40:09;;;;;;;22.52;19.98;;;3.40;99.90;;;;;;4985840;28;20082;-75
2021/12/19 09:42:36;;;;;;;26.50;21.35;;;3.40;99.90;;;;;;4977778;28;20029;-76
2021/12/19 09:45:04;;;;;;;24.75;20.45;;;3.30;99.90;;;;;;4992777;28;20484;-76
2021/12/19 09:47:29;;;;;;;23.02;18.70;;;3.40;99.90;;;;;;4990917;28;20042;-76
2021/12/19 09:49:57;;;;;;;22.58;20.15;;;3.40;99.90;;;;;;4983717;28;20498;-75
2021/12/19 09:52:23;;;;;;;20.45;18.27;;;3.40;99.90;;;;;;4987493;28;20138;-76
2021/12/19 09:54:49;;;;;;;21.20;17.45;;;3.40;99.90;;;;;;4980743;28;20126;-74
2021/12/19 09:57:14;;;;;;;17.27;15.48;;;3.40;99.90;;;;;;4979286;28;20121;-75
2021/12/19 09:59:40;;;;;;;20.33;16.52;;;3.50;99.90;;;;;;4977690;28;20019;-75
2021/12/19 10:02:05;;;;;;;17.83;15.60;;;3.40;99.90;;;;;;4986697;28;20080;-76
2021/12/19 10:04:40;;;;;;;22.88;17.73;;;3.40;99.90;;;;;;4974184;28;20026;-75
2021/12/19 10:07:08;;;;;;;18.55;16.17;;;3.60;99.90;;;;;;4978022;28;20058;-75
2021/12/19 10:09:37;;;;;;;16.65;14.80;;;3.50;99.90;;;;;;4981025;28;20081;-75
2021/12/19 10:15:01;;;;;;;17.48;14.70;;;3.40;99.90;;;;;;4984928;28;20392;-76
2021/12/19 10:17:26;;;;;;;16.17;14.50;;;3.40;99.90;;;;;;4983771;28;20027;-75
2021/12/19 10:19:57;;;;;;;17.20;15.05;;;3.50;99.90;;;;;;4990802;28;20022;-75
2021/12/19 10:22:32;;;;;;;18.13;15.13;;;3.50;99.90;;;;;;4984063;28;20503;-75
2021/12/19 10:25:22;;;;;;;17.08;14.82;;;3.50;99.90;;;;;;4983559;28;20046;-75
2021/12/19 10:27:53;;;;;;;18.27;14.07;;;3.50;99.90;;;;;;4986094;28;20408;-75
2021/12/19 10:30:26;;;;;;;16.00;13.57;;;3.50;99.90;;;;;;4980915;28;20027;-76
2021/12/19 10:32:59;;;;;;;18.05;15.23;;;3.60;99.90;;;;;;4997992;28;20077;-75
2021/12/19 10:35:29;;;;;;;17.73;15.65;;;3.60;99.90;;;;;;4985679;28;20034;-75
2021/12/19 10:37:55;;;;;;;17.60;15.15;;;3.60;99.90;;;;;;4983689;28;20433;-75
2021/12/19 10:40:21;;;;;;;18.02;14.85;;;3.60;99.90;;;;;;4978332;28;20027;-75
2021/12/19 10:43:03;;;;;;;15.90;13.80;;;3.70;99.90;;;;;;4987363;28;20042;-76
2021/12/19 10:45:47;;;;;;;17.27;14.75;;;3.60;99.90;;;;;;4986183;28;20355;-75
2021/12/19 10:48:19;;;;;;;18.50;15.65;;;3.60;99.90;;;;;;4970516;28;20034;-75
2021/12/19 10:50:46;;;;;;;18.23;14.00;;;3.80;99.90;;;;;;4980063;28;20030;-75
2021/12/19 10:53:12;;;;;;;18.08;14.77;;;3.60;99.90;;;;;;4983828;28;20023;-75
2021/12/19 10:55:40;;;;;;;16.85;14.60;;;3.70;99.90;;;;;;4986477;28;20030;-75
2021/12/19 10:58:35;;;;;;;17.58;14.55;;;3.60;99.90;;;;;;4984658;28;20105;-75
2021/12/19 11:01:22;;;;;;;20.17;15.05;;;3.70;99.90;;;;;;4973732;28;20026;-75
2021/12/19 11:04:08;;;;;;;18.42;15.52;;;3.70;99.90;;;;;;4974156;28;20034;-75
2021/12/19 11:06:45;;;;;;;19.38;14.23;;;3.80;99.90;;;;;;4986059;28;20050;-75
2021/12/19 11:09:18;;;;;;;17.38;14.50;;;3.80;99.90;;;;;;4982342;28;20469;-75
2021/12/19 11:12:07;;;;;;;18.58;14.70;;;3.80;99.90;;;;;;4986524;28;20117;-75
2021/12/19 11:14:43;;;;;;;21.95;16.02;;;3.80;99.90;;;;;;4976680;28;20022;-75
2021/12/19 11:17:23;;;;;;;;;;;3.80;99.90;;;;;;4973929;28;20050;-74
2021/12/19 11:19:52;;;;;;;16.70;14.52;;;3.90;99.90;;;;;;4990027;28;19913;-75
2021/12/19 11:22:24;;;;;;;17.60;14.32;;;3.90;99.90;;;;;;4992931;28;20019;-75
2021/12/19 11:25:01;;;;;;;18.83;14.32;;;4.00;99.90;;;;;;4978449;28;20027;-75
2021/12/19 11:27:28;;;;;;;19.13;14.38;;;4.00;99.90;;;;;;4984077;28;20037;-76
2021/12/19 11:29:56;;;;;;;17.42;14.48;;;4.00;99.90;;;;;;4978503;28;20033;-75
2021/12/19 11:32:30;;;;;;;17.67;14.50;;;4.00;99.90;;;;;;4991445;28;20034;-75
2021/12/19 11:35:02;;;;;;;17.35;14.77;;;4.00;99.90;;;;;;4984034;28;20027;-77
2021/12/19 11:37:52;;;;;;;20.83;16.00;;;4.00;99.90;;;;;;4972162;28;20063;-77
2021/12/19 11:40:20;;;;;;;19.67;15.52;;;4.00;99.90;;;;;;4971799;28;20026;-75
2021/12/19 11:42:46;;;;;;;16.98;14.75;;;4.00;99.90;;;;;;4972997;28;20118;-75
2021/12/19 11:45:33;;;;;;;19.73;14.52;;;4.10;99.90;;;;;;4976739;28;20018;-75
2021/12/19 11:48:15;;;;;;;17.65;14.85;;;4.10;99.90;;;;;;4977126;28;20507;-75
2021/12/19 11:50:53;;;;;;;19.38;15.57;;;4.10;99.90;;;;;;4982913;28;20023;-75
2021/12/19 11:53:24;;;;;;;18.02;14.30;;;4.10;99.90;;;;;;4982549;28;20030;-75
2021/12/19 11:56:08;;;;;;;20.35;15.70;;;4.10;99.90;;;;;;4974456;28;20026;-75
2021/12/19 11:58:45;;;;;;;18.02;14.65;;;4.10;99.90;;;;;;4975663;28;20034;-75
2021/12/19 12:01:14;;;;;;;18.13;15.13;;;4.20;99.90;;;;;;4983700;28;20468;-75
2021/12/19 12:03:42;;;;;;;18.85;15.00;;;4.10;99.90;;;;;;4981385;28;20038;-75
2021/12/19 12:06:17;;;;;;;18.55;14.65;;;4.20;99.90;;;;;;4983095;28;20053;-76
2021/12/19 12:09:15;;;;;;;21.35;14.82;;;4.20;99.90;;;;;;4979422;28;20054;-76
2021/12/19 12:12:03;;;;;;;18.88;15.27;;;4.20;99.90;;;;;;4975521;28;20416;-77
2021/12/19 12:14:34;;;;;;;18.05;15.77;;;4.20;99.90;;;;;;4980480;28;20109;-75
2021/12/19 12:17:05;;;;;;;17.27;14.10;;;4.20;99.90;;;;;;4984969;28;20061;-75
2021/12/19 12:19:52;;;;;;;19.15;15.63;;;4.20;99.90;;;;;;4978728;28;20027;-75
2021/12/19 12:25:24;;;;;;;20.30;15.38;;;4.20;99.90;;;;;;4990207;28;20048;-75
2021/12/19 12:28:02;;;;;;;20.35;14.85;;;4.20;99.90;;;;;;4993717;28;20033;-75
2021/12/19 12:30:31;;;;;;;19.70;15.30;;;4.30;99.90;;;;;;4984510;28;20392;-75
2021/12/19 12:32:58;;;;;;;20.45;15.85;;;4.30;99.90;;;;;;4987086;28;20097;-75
2021/12/19 12:35:25;;;;;;;22.40;18.55;;;4.30;99.90;;;;;;4995663;28;20572;-75
2021/12/19 12:37:51;;;;;;;20.65;16.63;;;4.30;99.90;;;;;;4985368;28;20085;-75
2021/12/19 12:40:30;;;;;;;20.40;16.55;;;4.30;99.90;;;;;;4986045;28;20026;-76
2021/12/19 12:43:10;;;;;;;20.55;16.15;;;4.40;99.90;;;;;;4979577;28;20485;-76
2021/12/19 12:46:07;;;;;;;23.10;17.35;;;4.40;99.90;;;;;;4981540;28;20058;-75
2021/12/19 12:48:41;;;;;;;20.80;15.95;;;4.40;99.90;;;;;;4977175;28;20034;-75
2021/12/19 12:51:26;;;;;;;20.30;15.80;;;4.40;99.90;;;;;;4982536;28;20030;-76
2021/12/19 12:54:02;;;;;;;24.80;17.77;;;4.40;99.90;;;;;;4980829;28;20109;-75
2021/12/19 12:56:33;;;;;;;22.08;17.50;;;4.40;99.90;;;;;;4974955;28;20027;-75
2021/12/19 12:59:00;;;;;;;20.73;15.88;;;4.40;99.90;;;;;;4983853;28;20023;-75
2021/12/19 13:01:35;;;;;;;20.38;15.93;;;4.30;99.90;;;;;;4976842;28;20034;-76
2021/12/19 13:04:09;;;;;;;21.20;17.17;;;4.30;99.90;;;;;;4990448;28;20019;-74
2021/12/19 13:06:42;;;;;;;19.48;15.80;;;4.30;99.90;;;;;;4978696;28;20031;-75
2021/12/19 13:09:11;;;;;;;21.58;17.40;;;4.40;99.90;;;;;;4988435;28;20038;-74
2021/12/19 13:11:37;;;;;;;21.83;16.92;;;4.50;99.90;;;;;;4977574;28;20117;-75
2021/12/19 13:14:20;;;;;;;21.40;16.45;;;4.30;99.90;;;;;;4975937;28;20119;-74
2021/12/19 13:16:49;;;;;;;20.83;17.05;;;4.40;99.90;;;;;;4972688;28;20023;-75
2021/12/19 13:19:41;;;;;;;22.08;16.17;;;4.40;99.90;;;;;;4986680;28;20022;-75
2021/12/19 13:22:10;;;;;;;23.60;17.38;;;4.40;99.90;;;;;;4969513;28;20026;-74
2021/12/19 13:24:36;;;;;;;22.08;16.73;;;4.40;99.90;;;;;;4987656;28;20531;-73
2021/12/19 13:27:08;;;;;;;23.05;17.77;;;4.40;99.90;;;;;;4977814;28;20034;-75
2021/12/19 13:29:34;;;;;;;23.98;17.95;;;4.40;99.90;;;;;;4977835;28;20473;-75
2021/12/19 13:32:20;;;;;;;22.90;17.15;;;4.40;99.90;;;;;;4993719;28;20045;-75
2021/12/19 13:34:48;;;;;;;28.58;17.90;;;4.40;99.90;;;;;;4981448;28;20444;-75
2021/12/19 13:37:13;;;;;;;25.63;18.00;;;4.40;99.90;;;;;;4982358;28;20030;-74
2021/12/19 13:39:41;;;;;;;26.33;19.13;;;4.40;99.90;;;;;;4988257;28;20027;-75
2021/12/19 13:42:14;;;;;;;24.02;18.58;;;4.30;99.90;;;;;;4985385;28;20540;-75
2021/12/19 13:44:40;;;;;;;23.92;17.70;;;4.40;99.90;;;;;;4980221;28;20049;-74
2021/12/19 13:47:26;;;;;;;26.42;18.33;;;4.40;99.90;;;;;;4981276;28;20031;-75
2021/12/19 13:49:52;;;;;;;26.05;18.00;;;4.40;99.90;;;;;;4972437;28;20038;-75
2021/12/19 13:52:18;;;;;;;25.48;18.33;;;4.40;99.90;;;;;;4979060;28;20500;-74
2021/12/19 13:54:44;;;;;;;24.27;17.80;;;4.40;99.90;;;;;;4993137;28;20065;-75